Time,TemperatureF,DewpointF,PressureIn,WindDirection,WindDirectionDegrees,WindSpeedMPH,WindSpeedGustMPH,Humidity,HourlyPrecipIn,Conditions,Clouds,dailyrainin,SolarRadiationWatts/m^2,SoftwareType,DateUTC
2013-04-23 00:01:00,74.5,70.3,30.03,East,93,0.0,5.0,87,0.01,,,0.01,0.0,meteohub,2013-04-23 04:01:00,
2013-04-23 00:02:00,74.7,70.5,30.03,East,93,0.0,5.0,87,0.01,,,0.01,0.0,meteohub,2013-04-23 04:02:00,
2013-04-23 00:03:00,74.7,70.9,30.03,East,93,0.0,5.0,88,0.01,,,0.01,0.0,meteohub,2013-04-23 04:03:00,
2013-04-23 00:09:00,74.7,70.9,30.03,ESE,103,0.0,0.0,88,0.01,,,0.00,0.0,meteohub,2013-04-23 04:09:00,
2013-04-23 00:14:00,74.7,70.5,30.03,ESE,106,0.0,7.0,87,0.01,,,0.00,0.0,meteohub,2013-04-23 04:14:00,
2013-04-23 00:19:00,74.7,69.8,30.03,SE,140,0.0,8.0,85,0.01,,,0.00,0.0,meteohub,2013-04-23 04:19:00,
2013-04-23 00:24:00,74.8,69.6,30.03,SE,127,0.0,9.0,84,0.00,,,0.00,0.0,meteohub,2013-04-23 04:24:00,
2013-04-23 00:29:00,75.0,69.4,30.03,SE,136,0.0,9.0,83,0.00,,,0.00,0.0,meteohub,2013-04-23 04:29:00,
2013-04-23 00:34:00,75.0,69.4,30.03,SE,141,0.0,9.0,83,0.00,,,0.00,0.0,meteohub,2013-04-23 04:34:00,
2013-04-23 00:39:00,75.4,69.4,30.03,SSE,151,0.0,8.0,82,0.00,,,0.00,0.0,meteohub,2013-04-23 04:39:00,
2013-04-23 00:44:00,75.4,69.4,30.02,SE,134,0.0,4.0,82,0.00,,,0.00,0.0,meteohub,2013-04-23 04:44:00,
2013-04-23 00:49:00,75.0,69.1,30.02,SE,133,0.0,0.0,82,0.00,,,0.00,0.0,meteohub,2013-04-23 04:49:00,
2013-04-23 00:54:00,75.0,69.1,30.02,SE,136,0.0,6.0,82,0.00,,,0.00,0.0,meteohub,2013-04-23 04:54:00,
2013-04-23 00:59:00,75.0,69.4,30.02,SE,134,0.0,6.0,83,0.00,,,0.00,0.0,meteohub,2013-04-23 04:59:00,
2013-04-23 01:04:00,75.4,70.2,30.02,SE,133,0.0,0.0,84,0.00,,,0.00,0.0,meteohub,2013-04-23 05:04:00,
2013-04-23 01:09:00,75.0,70.2,30.02,SE,133,0.0,0.0,85,0.00,,,0.00,0.0,meteohub,2013-04-23 05:09:00,
2013-04-23 01:14:00,74.7,70.2,30.01,East,99,0.0,0.0,86,0.00,,,0.00,0.0,meteohub,2013-04-23 05:14:00,
2013-04-23 01:19:00,74.5,70.3,30.01,East,97,0.0,0.0,87,0.00,,,0.00,0.0,meteohub,2013-04-23 05:19:00,
2013-04-23 01:24:00,74.1,70.3,30.01,East,99,0.0,0.0,88,0.00,,,0.00,0.0,meteohub,2013-04-23 05:24:00,
2013-04-23 01:29:00,73.9,70.2,30.01,East,99,0.0,0.0,88,0.00,,,0.00,0.0,meteohub,2013-04-23 05:29:00,
2013-04-23 01:34:00,73.9,70.2,30.01,East,97,0.0,0.0,88,0.00,,,0.00,0.0,meteohub,2013-04-23 05:34:00,
2013-04-23 01:40:00,73.9,70.2,30.01,East,97,0.0,0.0,88,0.01,,,0.01,0.0,meteohub,2013-04-23 05:40:00,
2013-04-23 01:45:00,74.5,70.7,30.00,East,97,0.0,0.0,88,0.01,,,0.01,0.0,meteohub,2013-04-23 05:45:00,
2013-04-23 01:49:00,74.5,70.7,30.00,East,97,0.0,0.0,88,0.01,,,0.01,0.0,meteohub,2013-04-23 05:49:00,
2013-04-23 01:55:00,73.9,70.2,30.00,East,97,0.0,0.0,88,0.01,,,0.01,0.0,meteohub,2013-04-23 05:55:00,
2013-04-23 02:00:00,73.9,70.2,29.99,East,97,0.0,0.0,88,0.01,,,0.01,0.0,meteohub,2013-04-23 06:00:00,
2013-04-23 02:04:00,73.9,70.2,29.99,East,97,0.0,0.0,88,0.01,,,0.01,0.0,meteohub,2013-04-23 06:04:00,
2013-04-23 02:10:00,73.9,70.2,29.99,East,97,0.0,0.0,88,0.01,,,0.01,0.0,meteohub,2013-04-23 06:10:00,
2013-04-23 02:15:00,73.9,70.2,29.99,East,96,0.0,0.0,88,0.01,,,0.01,0.0,meteohub,2013-04-23 06:15:00,
2013-04-23 02:20:00,73.9,70.2,29.99,East,97,0.0,0.0,88,0.01,,,0.01,0.0,meteohub,2013-04-23 06:20:00,
2013-04-23 02:25:00,73.9,70.2,29.99,East,99,0.0,0.0,88,0.01,,,0.01,0.0,meteohub,2013-04-23 06:25:00,
2013-04-23 02:30:00,73.9,69.8,29.99,East,97,0.0,0.0,87,0.01,,,0.01,0.0,meteohub,2013-04-23 06:30:00,
2013-04-23 02:35:00,73.9,69.8,29.99,East,97,0.0,0.0,87,0.01,,,0.01,0.0,meteohub,2013-04-23 06:35:00,
2013-04-23 02:40:00,73.8,69.6,29.99,East,99,0.0,0.0,87,0.00,,,0.01,0.0,meteohub,2013-04-23 06:40:00,
2013-04-23 02:45:00,73.9,69.8,29.99,East,99,0.0,0.0,87,0.00,,,0.01,0.0,meteohub,2013-04-23 06:45:00,
2013-04-23 02:50:00,73.8,69.6,29.99,East,99,0.0,0.0,87,0.00,,,0.01,0.0,meteohub,2013-04-23 06:50:00,
2013-04-23 02:55:00,73.8,69.6,29.99,East,100,0.0,0.0,87,0.00,,,0.01,0.0,meteohub,2013-04-23 06:55:00,
2013-04-23 03:00:00,73.6,69.4,29.98,East,99,0.0,0.0,87,0.00,,,0.01,0.0,meteohub,2013-04-23 07:00:00,
2013-04-23 03:05:00,73.2,69.1,29.98,East,100,0.0,0.0,87,0.00,,,0.01,0.0,meteohub,2013-04-23 07:05:00,
2013-04-23 03:10:00,73.2,69.1,29.98,East,100,0.0,0.0,87,0.00,,,0.01,0.0,meteohub,2013-04-23 07:10:00,
2013-04-23 03:15:00,73.2,69.1,29.98,East,100,0.0,0.0,87,0.00,,,0.01,0.0,meteohub,2013-04-23 07:15:00,
2013-04-23 03:21:00,73.0,68.9,29.98,East,100,0.0,0.0,87,0.00,,,0.01,0.0,meteohub,2013-04-23 07:21:00,
2013-04-23 03:26:00,73.0,68.9,29.98,ESE,102,0.0,0.0,87,0.00,,,0.01,0.0,meteohub,2013-04-23 07:26:00,
2013-04-23 03:31:00,73.0,68.9,29.98,ESE,102,0.0,0.0,87,0.00,,,0.01,0.0,meteohub,2013-04-23 07:31:00,
2013-04-23 03:36:00,73.0,69.3,29.98,East,100,0.0,0.0,88,0.00,,,0.01,0.0,meteohub,2013-04-23 07:36:00,
2013-04-23 03:40:00,73.0,69.3,29.98,ESE,102,0.0,0.0,88,0.00,,,0.01,0.0,meteohub,2013-04-23 07:40:00,
2013-04-23 03:46:00,72.9,69.1,29.98,East,100,0.0,0.0,88,0.00,,,0.01,0.0,meteohub,2013-04-23 07:46:00,
2013-04-23 03:51:00,72.9,69.1,29.98,East,100,0.0,0.0,88,0.00,,,0.01,0.0,meteohub,2013-04-23 07:51:00,
2013-04-23 03:56:00,72.9,69.1,29.98,ESE,102,0.0,0.0,88,0.00,,,0.01,0.0,meteohub,2013-04-23 07:56:00,
2013-04-23 04:01:00,72.9,69.1,29.98,East,99,0.0,0.0,88,0.00,,,0.01,0.0,meteohub,2013-04-23 08:01:00,
2013-04-23 04:06:00,72.7,68.9,29.98,East,99,0.0,0.0,88,0.00,,,0.01,0.0,meteohub,2013-04-23 08:06:00,
2013-04-23 04:11:00,72.7,68.9,29.98,East,99,0.0,0.0,88,0.00,,,0.01,0.0,meteohub,2013-04-23 08:11:00,
2013-04-23 04:16:00,72.5,69.1,29.98,East,100,0.0,0.0,89,0.00,,,0.01,0.0,meteohub,2013-04-23 08:16:00,
2013-04-23 04:21:00,72.5,69.1,29.98,ESE,102,0.0,0.0,89,0.00,,,0.01,0.0,meteohub,2013-04-23 08:21:00,
2013-04-23 04:26:00,72.5,69.1,29.98,ESE,102,0.0,0.0,89,0.00,,,0.01,0.0,meteohub,2013-04-23 08:26:00,
2013-04-23 04:31:00,72.5,69.1,29.98,ESE,102,0.0,0.0,89,0.00,,,0.01,0.0,meteohub,2013-04-23 08:31:00,
2013-04-23 04:36:00,72.3,68.9,29.98,ESE,102,0.0,0.0,89,0.00,,,0.01,0.0,meteohub,2013-04-23 08:36:00,
2013-04-23 04:41:00,72.3,68.9,29.98,East,100,0.0,0.0,89,0.00,,,0.01,0.0,meteohub,2013-04-23 08:41:00,
2013-04-23 04:46:00,72.3,68.9,29.98,ESE,102,0.0,0.0,89,0.00,,,0.01,0.0,meteohub,2013-04-23 08:46:00,
2013-04-23 04:51:00,72.3,69.3,29.98,ESE,102,0.0,0.0,90,0.00,,,0.01,0.0,meteohub,2013-04-23 08:51:00,
2013-04-23 04:56:00,72.3,68.9,29.98,ESE,102,0.0,0.0,89,0.00,,,0.01,0.0,meteohub,2013-04-23 08:56:00,
2013-04-23 05:01:00,72.1,68.7,29.99,ESE,102,0.0,0.0,89,0.00,,,0.01,0.0,meteohub,2013-04-23 09:01:00,
2013-04-23 05:06:00,72.1,68.7,29.99,ESE,103,0.0,0.0,89,0.00,,,0.01,0.0,meteohub,2013-04-23 09:06:00,
2013-04-23 05:12:00,72.1,69.1,29.99,East,100,0.0,0.0,90,0.00,,,0.01,0.0,meteohub,2013-04-23 09:12:00,
2013-04-23 05:17:00,72.1,69.1,29.99,ESE,102,0.0,0.0,90,0.00,,,0.01,0.0,meteohub,2013-04-23 09:17:00,
2013-04-23 05:22:00,72.0,68.9,29.99,East,100,0.0,0.0,90,0.00,,,0.01,0.0,meteohub,2013-04-23 09:22:00,
2013-04-23 05:27:00,72.1,69.1,29.99,ESE,102,0.0,0.0,90,0.00,,,0.01,0.0,meteohub,2013-04-23 09:27:00,
2013-04-23 05:32:00,72.0,68.9,29.99,ESE,102,0.0,0.0,90,0.00,,,0.01,0.0,meteohub,2013-04-23 09:32:00,
2013-04-23 05:37:00,71.8,68.7,29.99,ESE,102,0.0,0.0,90,0.00,,,0.01,0.0,meteohub,2013-04-23 09:37:00,
2013-04-23 05:42:00,72.0,68.9,29.99,East,100,0.0,0.0,90,0.00,,,0.01,0.0,meteohub,2013-04-23 09:42:00,
2013-04-23 05:47:00,71.8,68.7,29.99,ESE,102,0.0,0.0,90,0.00,,,0.01,0.0,meteohub,2013-04-23 09:47:00,
2013-04-23 05:52:00,71.8,69.1,29.99,ESE,102,0.0,0.0,91,0.00,,,0.01,0.0,meteohub,2013-04-23 09:52:00,
2013-04-23 05:57:00,71.8,69.1,29.99,East,99,0.0,0.0,91,0.00,,,0.01,0.0,meteohub,2013-04-23 09:57:00,
2013-04-23 06:02:00,71.8,69.1,30.00,ESE,102,0.0,0.0,91,0.00,,,0.01,0.0,meteohub,2013-04-23 10:02:00,
2013-04-23 06:07:00,71.8,69.1,30.00,ESE,102,0.0,0.0,91,0.00,,,0.01,5.0,meteohub,2013-04-23 10:07:00,
2013-04-23 06:12:00,71.8,69.1,30.00,ESE,103,0.0,0.0,91,0.00,,,0.01,7.0,meteohub,2013-04-23 10:12:00,
2013-04-23 06:17:00,71.8,69.1,30.01,ESE,102,0.0,0.0,91,0.00,,,0.01,11.0,meteohub,2013-04-23 10:17:00,
2013-04-23 06:22:00,71.8,69.1,30.01,ESE,102,0.0,0.0,91,0.00,,,0.01,14.0,meteohub,2013-04-23 10:22:00,
2013-04-23 06:27:00,71.8,69.1,30.01,ESE,102,0.0,0.0,91,0.00,,,0.01,21.0,meteohub,2013-04-23 10:27:00,
2013-04-23 06:32:00,72.1,69.4,30.01,ESE,102,0.0,0.0,91,0.00,,,0.01,30.0,meteohub,2013-04-23 10:32:00,
2013-04-23 06:37:00,72.1,69.1,30.01,ESE,102,0.0,0.0,90,0.00,,,0.01,55.0,meteohub,2013-04-23 10:37:00,
2013-04-23 06:42:00,72.5,69.4,30.01,East,100,0.0,0.0,90,0.00,,,0.01,109.0,meteohub,2013-04-23 10:42:00,
2013-04-23 06:47:00,72.7,69.6,30.01,ESE,102,0.0,0.0,90,0.00,,,0.01,127.0,meteohub,2013-04-23 10:47:00,
2013-04-23 06:52:00,73.0,69.6,30.01,ESE,102,0.0,0.0,89,0.00,,,0.01,146.0,meteohub,2013-04-23 10:52:00,
2013-04-23 06:57:00,73.2,69.4,30.01,ESE,102,0.0,0.0,88,0.00,,,0.01,165.0,meteohub,2013-04-23 10:57:00,
2013-04-23 07:02:00,73.9,70.2,30.01,East,100,0.0,0.0,88,0.00,,,0.01,185.0,meteohub,2013-04-23 11:02:00,
2013-04-23 07:07:00,74.1,70.0,30.01,ESE,102,0.0,0.0,87,0.00,,,0.01,204.0,meteohub,2013-04-23 11:07:00,
2013-04-23 07:12:00,74.7,69.4,30.01,ESE,102,0.0,0.0,84,0.00,,,0.01,223.0,meteohub,2013-04-23 11:12:00,
2013-04-23 07:17:00,75.4,69.8,30.01,ESE,102,0.0,0.0,83,0.00,,,0.01,243.0,meteohub,2013-04-23 11:17:00,
2013-04-23 07:23:00,75.9,70.0,30.01,ESE,103,0.0,0.0,82,0.00,,,0.01,264.0,meteohub,2013-04-23 11:23:00,
2013-04-23 07:28:00,75.9,69.6,30.01,ESE,104,0.0,1.0,81,0.00,,,0.01,287.0,meteohub,2013-04-23 11:28:00,
2013-04-23 07:33:00,76.3,69.6,30.01,ESE,106,0.0,1.0,80,0.00,,,0.01,303.0,meteohub,2013-04-23 11:33:00,
2013-04-23 07:38:00,76.5,69.1,30.01,ESE,106,3.0,3.0,78,0.00,,,0.01,324.0,meteohub,2013-04-23 11:38:00,
2013-04-23 07:43:00,76.6,68.9,30.01,SE,128,0.0,5.0,77,0.00,,,0.01,340.0,meteohub,2013-04-23 11:43:00,
2013-04-23 07:48:00,77.0,69.3,30.01,SE,130,0.0,6.0,77,0.00,,,0.01,359.0,meteohub,2013-04-23 11:48:00,
2013-04-23 07:53:00,77.4,69.3,30.01,SE,128,0.0,6.0,76,0.00,,,0.01,380.0,meteohub,2013-04-23 11:53:00,
2013-04-23 07:58:00,77.9,68.9,30.02,SE,128,0.0,6.0,74,0.00,,,0.01,399.0,meteohub,2013-04-23 11:58:00,
2013-04-23 08:03:00,78.8,69.4,30.02,SE,128,0.0,0.0,73,0.00,,,0.01,419.0,meteohub,2013-04-23 12:03:00,
2013-04-23 08:08:00,78.6,69.3,30.02,ENE,65,0.0,0.0,73,0.00,,,0.01,440.0,meteohub,2013-04-23 12:08:00,
2013-04-23 08:13:00,78.8,69.4,30.02,ENE,65,0.0,1.0,73,0.00,,,0.01,465.0,meteohub,2013-04-23 12:13:00,
2013-04-23 08:18:00,79.3,69.4,30.02,ENE,64,0.0,1.0,72,0.00,,,0.01,486.0,meteohub,2013-04-23 12:18:00,
2013-04-23 08:23:00,80.2,70.0,30.02,ENE,62,0.0,1.0,71,0.00,,,0.01,505.0,meteohub,2013-04-23 12:23:00,
2013-04-23 08:28:00,80.2,70.0,30.02,East,80,3.0,6.0,71,0.00,,,0.01,526.0,meteohub,2013-04-23 12:28:00,
2013-04-23 08:33:00,80.4,70.2,30.02,East,79,0.0,8.0,71,0.00,,,0.01,545.0,meteohub,2013-04-23 12:33:00,
2013-04-23 08:38:00,80.4,70.2,30.02,ESE,121,3.0,8.0,71,0.00,,,0.01,584.0,meteohub,2013-04-23 12:38:00,
2013-04-23 08:43:00,80.2,70.3,30.03,ESE,109,0.0,8.0,72,0.00,,,0.01,644.0,meteohub,2013-04-23 12:43:00,
2013-04-23 08:48:00,80.8,70.9,30.03,SE,137,0.0,7.0,72,0.00,,,0.01,651.0,meteohub,2013-04-23 12:48:00,
2013-04-23 08:53:00,81.1,71.2,30.03,ENE,68,0.0,8.0,72,0.00,,,0.01,679.0,meteohub,2013-04-23 12:53:00,
2013-04-23 08:58:00,81.3,71.1,30.03,ESE,123,0.0,8.0,71,0.00,,,0.01,713.0,meteohub,2013-04-23 12:58:00,
2013-04-23 09:03:00,82.0,71.2,30.03,NE,56,0.0,8.0,70,0.00,,,0.01,164.0,meteohub,2013-04-23 13:03:00,
2013-04-23 09:09:00,81.1,70.9,30.03,East,86,0.0,8.0,71,0.00,,,0.01,820.0,meteohub,2013-04-23 13:09:00,
2013-04-23 09:14:00,81.7,70.9,30.03,SSE,167,1.0,8.0,70,0.00,,,0.01,202.0,meteohub,2013-04-23 13:14:00,
2013-04-23 09:19:00,81.1,70.9,30.03,SE,133,2.0,8.0,71,0.00,,,0.01,209.0,meteohub,2013-04-23 13:19:00,
2013-04-23 09:24:00,81.7,70.9,30.03,ESE,106,0.0,8.0,70,0.00,,,0.01,823.0,meteohub,2013-04-23 13:24:00,
2013-04-23 09:29:00,81.9,71.1,30.03,ESE,123,3.0,8.0,70,0.00,,,0.01,823.0,meteohub,2013-04-23 13:29:00,
2013-04-23 09:34:00,82.0,70.9,30.03,ESE,109,0.0,8.0,69,0.00,,,0.01,830.0,meteohub,2013-04-23 13:34:00,
2013-04-23 09:39:00,82.6,70.0,30.03,South,189,6.0,7.0,66,0.00,,,0.01,683.0,meteohub,2013-04-23 13:39:00,
2013-04-23 09:44:00,82.2,70.2,30.03,SSE,161,0.0,7.0,67,0.00,,,0.01,841.0,meteohub,2013-04-23 13:44:00,
2013-04-23 09:49:00,82.6,70.5,30.03,SSE,164,0.0,7.0,67,0.00,,,0.01,885.0,meteohub,2013-04-23 13:49:00,
2013-04-23 09:54:00,82.9,70.3,30.03,SSE,164,0.0,7.0,66,0.00,,,0.01,194.0,meteohub,2013-04-23 13:54:00,
2013-04-23 09:59:00,82.4,70.3,30.03,ESE,113,0.0,7.0,67,0.00,,,0.01,176.0,meteohub,2013-04-23 13:59:00,
2013-04-23 10:04:00,81.9,70.3,30.03,ENE,62,0.0,7.0,68,0.00,,,0.01,192.0,meteohub,2013-04-23 14:04:00,
2013-04-23 10:09:00,82.0,70.3,30.03,NE,48,0.0,3.0,68,0.00,,,0.01,253.0,meteohub,2013-04-23 14:09:00,
2013-04-23 10:14:00,83.1,71.1,30.03,NE,40,0.0,3.0,67,0.00,,,0.01,954.0,meteohub,2013-04-23 14:14:00,
2013-04-23 10:19:00,82.8,71.1,30.03,NE,40,0.0,8.0,68,0.00,,,0.01,266.0,meteohub,2013-04-23 14:19:00,
2013-04-23 10:25:00,82.6,70.5,30.03,NE,38,0.0,8.0,67,0.00,,,0.01,183.0,meteohub,2013-04-23 14:25:00,
2013-04-23 10:30:00,82.6,70.5,30.03,East,85,0.0,8.0,67,0.00,,,0.01,194.0,meteohub,2013-04-23 14:30:00,
2013-04-23 10:34:00,82.4,70.7,30.03,East,90,0.0,3.0,68,0.00,,,0.01,218.0,meteohub,2013-04-23 14:34:00,
2013-04-23 10:40:00,82.4,70.7,30.03,ENE,59,0.0,3.0,68,0.00,,,0.01,361.0,meteohub,2013-04-23 14:40:00,
2013-04-23 10:45:00,82.9,70.9,30.02,ENE,58,0.0,5.0,67,0.00,,,0.01,361.0,meteohub,2013-04-23 14:45:00,
2013-04-23 10:50:00,84.7,71.6,30.02,East,82,0.0,5.0,65,0.00,,,0.01,361.0,meteohub,2013-04-23 14:50:00,
2013-04-23 10:55:00,85.1,70.5,30.02,SE,130,0.0,5.0,62,0.00,,,0.01,204.0,meteohub,2013-04-23 14:55:00,
2013-04-23 11:00:00,84.0,70.5,30.02,East,100,0.0,7.0,64,0.00,,,0.01,181.0,meteohub,2013-04-23 15:00:00,
2013-04-23 11:05:00,83.1,70.5,30.02,ESE,123,5.0,7.0,66,0.00,,,0.01,141.0,meteohub,2013-04-23 15:05:00,
2013-04-23 11:10:00,82.8,71.1,30.02,ESE,113,0.0,7.0,68,0.00,,,0.01,107.0,meteohub,2013-04-23 15:10:00,
2013-04-23 11:15:00,82.2,71.4,30.02,NE,42,0.0,11.0,70,0.00,,,0.01,120.0,meteohub,2013-04-23 15:15:00,
2013-04-23 11:20:00,82.2,71.4,30.02,East,100,2.0,11.0,70,0.00,,,0.01,123.0,meteohub,2013-04-23 15:20:00,
2013-04-23 11:25:00,82.0,70.9,30.02,East,88,4.0,12.0,69,0.00,,,0.01,176.0,meteohub,2013-04-23 15:25:00,
2013-04-23 11:30:00,82.2,71.4,30.01,ENE,66,7.0,12.0,70,0.00,,,0.01,326.0,meteohub,2013-04-23 15:30:00,
2013-04-23 11:35:00,82.8,72.0,30.01,East,93,6.0,18.0,70,0.00,,,0.01,280.0,meteohub,2013-04-23 15:35:00,
2013-04-23 11:40:00,82.9,70.9,30.01,SE,134,13.0,18.0,67,0.00,,,0.01,280.0,meteohub,2013-04-23 15:40:00,
2013-04-23 11:45:00,82.8,72.0,30.01,SE,131,5.0,18.0,70,0.00,,,0.01,234.0,meteohub,2013-04-23 15:45:00,
2013-04-23 11:50:00,81.7,72.5,30.01,SE,126,4.0,14.0,74,0.00,,,0.01,213.0,meteohub,2013-04-23 15:50:00,
2013-04-23 11:55:00,80.8,72.9,30.01,SE,127,0.0,14.0,77,0.00,,,0.02,218.0,meteohub,2013-04-23 15:55:00,
2013-04-23 12:00:00,80.1,72.1,30.00,East,85,2.0,14.0,77,0.01,,,0.02,276.0,meteohub,2013-04-23 16:00:00,
2013-04-23 12:05:00,80.8,73.6,30.00,ENE,72,3.0,12.0,79,0.01,,,0.02,324.0,meteohub,2013-04-23 16:05:00,
2013-04-23 12:10:00,80.4,72.5,30.00,ENE,62,0.0,8.0,77,0.01,,,0.02,433.0,meteohub,2013-04-23 16:10:00,
2013-04-23 12:15:00,81.1,72.9,30.00,ENE,68,0.0,10.0,76,0.01,,,0.02,352.0,meteohub,2013-04-23 16:15:00,
2013-04-23 12:20:00,81.3,73.0,30.00,ENE,78,0.0,10.0,76,0.01,,,0.02,338.0,meteohub,2013-04-23 16:20:00,
2013-04-23 12:25:00,81.9,73.2,30.00,ENE,73,7.0,13.0,75,0.01,,,0.02,327.0,meteohub,2013-04-23 16:25:00,
2013-04-23 12:30:00,81.3,73.0,29.99,NE,47,10.0,13.0,76,0.01,,,0.02,262.0,meteohub,2013-04-23 16:30:00,
2013-04-23 12:35:00,81.0,72.7,29.99,East,79,0.0,13.0,76,0.01,,,0.02,236.0,meteohub,2013-04-23 16:35:00,
2013-04-23 12:40:00,81.1,73.6,29.99,East,80,0.0,13.0,78,0.01,,,0.02,243.0,meteohub,2013-04-23 16:40:00,
2013-04-23 12:45:00,80.8,73.2,29.99,East,79,0.0,12.0,78,0.02,,,0.03,239.0,meteohub,2013-04-23 16:45:00,
2013-04-23 12:50:00,79.9,72.0,29.99,ENE,78,0.0,0.0,77,0.01,,,0.03,238.0,meteohub,2013-04-23 16:50:00,
2013-04-23 12:55:00,80.2,72.3,29.99,East,79,0.0,0.0,77,0.01,,,0.03,206.0,meteohub,2013-04-23 16:55:00,
2013-04-23 13:01:00,79.9,71.6,29.99,East,80,0.0,0.0,76,0.01,,,0.03,195.0,meteohub,2013-04-23 17:01:00,
2013-04-23 13:06:00,79.9,72.0,29.99,East,80,0.0,0.0,77,0.02,,,0.04,171.0,meteohub,2013-04-23 17:06:00,
2013-04-23 13:11:00,80.1,72.1,29.99,South,186,0.0,0.0,77,0.02,,,0.04,151.0,meteohub,2013-04-23 17:11:00,
2013-04-23 13:16:00,80.2,72.7,29.99,NE,42,5.0,5.0,78,0.02,,,0.04,150.0,meteohub,2013-04-23 17:16:00,
2013-04-23 13:20:00,80.8,72.9,29.99,ENE,65,2.0,5.0,77,0.02,,,0.04,153.0,meteohub,2013-04-23 17:20:00,
2013-04-23 13:26:00,80.8,72.9,29.99,NE,48,0.0,5.0,77,0.02,,,0.04,144.0,meteohub,2013-04-23 17:26:00,
2013-04-23 13:31:00,80.8,72.5,29.98,East,95,7.0,11.0,76,0.02,,,0.04,206.0,meteohub,2013-04-23 17:31:00,
2013-04-23 13:36:00,81.1,72.9,29.98,East,93,0.0,14.0,76,0.02,,,0.04,903.0,meteohub,2013-04-23 17:36:00,
2013-04-23 13:41:00,82.2,73.0,29.98,East,89,6.0,14.0,74,0.02,,,0.04,341.0,meteohub,2013-04-23 17:41:00,
2013-04-23 13:46:00,82.0,72.5,29.97,East,85,10.0,14.0,73,0.01,,,0.04,250.0,meteohub,2013-04-23 17:46:00,
2013-04-23 13:51:00,81.7,73.0,29.97,NE,40,4.0,16.0,75,0.01,,,0.04,201.0,meteohub,2013-04-23 17:51:00,
2013-04-23 13:56:00,81.3,72.7,29.97,NE,51,8.0,16.0,75,0.01,,,0.04,313.0,meteohub,2013-04-23 17:56:00,
2013-04-23 14:01:00,81.9,72.7,29.97,ENE,62,14.0,16.0,74,0.00,,,0.04,593.0,meteohub,2013-04-23 18:01:00,
2013-04-23 14:06:00,82.2,72.7,29.97,ENE,72,3.0,16.0,73,0.00,,,0.04,361.0,meteohub,2013-04-23 18:06:00,
2013-04-23 14:11:00,82.9,73.0,29.97,East,79,8.0,18.0,72,0.00,,,0.04,361.0,meteohub,2013-04-23 18:11:00,
2013-04-23 14:16:00,84.0,73.2,29.96,East,90,6.0,18.0,70,0.00,,,0.04,1072.0,meteohub,2013-04-23 18:16:00,
2013-04-23 14:21:00,84.6,73.2,29.96,ENE,72,11.0,18.0,69,0.00,,,0.04,1070.0,meteohub,2013-04-23 18:21:00,
2013-04-23 14:26:00,84.7,73.0,29.96,ENE,71,10.0,16.0,68,0.00,,,0.04,1107.0,meteohub,2013-04-23 18:26:00,
2013-04-23 14:31:00,85.3,73.0,29.95,ENE,75,9.0,17.0,67,0.00,,,0.04,1107.0,meteohub,2013-04-23 18:31:00,
2013-04-23 14:36:00,84.4,72.7,29.95,NE,51,12.0,17.0,68,0.00,,,0.04,276.0,meteohub,2013-04-23 18:36:00,
2013-04-23 14:41:00,83.7,72.9,29.95,NNE,32,3.0,17.0,70,0.00,,,0.04,331.0,meteohub,2013-04-23 18:41:00,
2013-04-23 14:46:00,84.0,72.7,29.95,ENE,68,6.0,17.0,69,0.00,,,0.04,227.0,meteohub,2013-04-23 18:46:00,
2013-04-23 14:51:00,83.5,72.7,29.95,NNE,32,13.0,18.0,70,0.00,,,0.04,174.0,meteohub,2013-04-23 18:51:00,
2013-04-23 14:56:00,82.8,72.3,29.95,ENE,73,3.0,18.0,71,0.00,,,0.04,178.0,meteohub,2013-04-23 18:56:00,
2013-04-23 15:01:00,82.4,72.0,29.95,East,85,8.0,19.0,71,0.00,,,0.04,213.0,meteohub,2013-04-23 19:01:00,
2013-04-23 15:06:00,82.6,72.1,29.95,ESE,104,6.0,19.0,71,0.00,,,0.04,190.0,meteohub,2013-04-23 19:06:00,
2013-04-23 15:11:00,82.8,72.9,29.95,East,93,1.0,19.0,72,0.00,,,0.04,143.0,meteohub,2013-04-23 19:11:00,
2013-04-23 15:16:00,82.4,72.5,29.95,East,99,5.0,16.0,72,0.00,,,0.04,158.0,meteohub,2013-04-23 19:16:00,
2013-04-23 15:21:00,82.2,72.3,29.95,ENE,73,6.0,13.0,72,0.00,,,0.04,266.0,meteohub,2013-04-23 19:21:00,
2013-04-23 15:26:00,82.6,72.1,29.95,East,89,14.0,14.0,71,0.00,,,0.04,225.0,meteohub,2013-04-23 19:26:00,
2013-04-23 15:31:00,83.7,72.3,29.94,ENE,73,12.0,17.0,69,0.00,,,0.04,820.0,meteohub,2013-04-23 19:31:00,
2013-04-23 15:36:00,84.0,72.3,29.94,ENE,73,13.0,19.0,68,0.00,,,0.04,236.0,meteohub,2013-04-23 19:36:00,
2013-04-23 15:41:00,84.0,72.3,29.94,ESE,110,7.0,19.0,68,0.00,,,0.04,758.0,meteohub,2013-04-23 19:41:00,
2013-04-23 15:46:00,84.6,72.9,29.93,ESE,103,7.0,19.0,68,0.00,,,0.04,264.0,meteohub,2013-04-23 19:46:00,
2013-04-23 15:51:00,84.0,72.3,29.93,ESE,109,10.0,17.0,68,0.00,,,0.04,271.0,meteohub,2013-04-23 19:51:00,
2013-04-23 15:56:00,83.7,72.3,29.93,ESE,121,6.0,17.0,69,0.00,,,0.04,153.0,meteohub,2013-04-23 19:56:00,
2013-04-23 16:01:00,83.1,72.0,29.93,East,83,4.0,19.0,69,0.00,,,0.04,194.0,meteohub,2013-04-23 20:01:00,
2013-04-23 16:06:00,83.5,72.3,29.93,East,99,9.0,19.0,69,0.00,,,0.04,197.0,meteohub,2013-04-23 20:06:00,
2013-04-23 16:12:00,83.1,71.4,29.93,East,86,2.0,17.0,68,0.00,,,0.04,148.0,meteohub,2013-04-23 20:12:00,
2013-04-23 16:17:00,82.8,71.6,29.93,ESE,109,1.0,17.0,69,0.00,,,0.04,220.0,meteohub,2013-04-23 20:17:00,
2013-04-23 16:22:00,83.1,71.4,29.93,ENE,71,8.0,17.0,68,0.00,,,0.04,144.0,meteohub,2013-04-23 20:22:00,
2013-04-23 16:27:00,82.9,70.3,29.93,SSE,160,7.0,12.0,66,0.00,,,0.04,118.0,meteohub,2013-04-23 20:27:00,
2013-04-23 16:32:00,82.9,70.0,29.93,SE,138,0.0,12.0,65,0.00,,,0.04,139.0,meteohub,2013-04-23 20:32:00,
2013-04-23 16:37:00,83.5,70.5,29.93,ESE,114,5.0,13.0,65,0.00,,,0.04,523.0,meteohub,2013-04-23 20:37:00,
2013-04-23 16:42:00,84.4,70.9,29.93,SSE,147,1.0,13.0,64,0.00,,,0.04,489.0,meteohub,2013-04-23 20:42:00,
2013-04-23 16:47:00,84.7,70.7,29.93,East,97,7.0,13.0,63,0.00,,,0.04,489.0,meteohub,2013-04-23 20:47:00,
2013-04-23 16:52:00,84.4,70.9,29.93,SE,140,3.0,13.0,64,0.00,,,0.04,415.0,meteohub,2013-04-23 20:52:00,
2013-04-23 16:57:00,84.6,71.1,29.93,SE,133,3.0,13.0,64,0.00,,,0.04,389.0,meteohub,2013-04-23 20:57:00,
2013-04-23 17:02:00,84.7,71.2,29.93,SE,128,12.0,13.0,64,0.00,,,0.04,171.0,meteohub,2013-04-23 21:02:00,
2013-04-23 17:07:00,84.4,71.2,29.93,ESE,120,0.0,14.0,65,0.00,,,0.04,248.0,meteohub,2013-04-23 21:07:00,
2013-04-23 17:12:00,84.4,71.2,29.93,ESE,106,2.0,16.0,65,0.00,,,0.04,324.0,meteohub,2013-04-23 21:12:00,
2013-04-23 17:17:00,84.0,71.1,29.93,SE,127,7.0,16.0,65,0.00,,,0.04,306.0,meteohub,2013-04-23 21:17:00,
2013-04-23 17:22:00,84.0,71.1,29.93,South,172,0.0,11.0,65,0.00,,,0.04,262.0,meteohub,2013-04-23 21:22:00,
2013-04-23 17:27:00,83.8,71.2,29.93,SSE,155,0.0,12.0,66,0.00,,,0.04,260.0,meteohub,2013-04-23 21:27:00,
2013-04-23 17:32:00,83.1,70.5,29.94,SE,137,8.0,13.0,66,0.00,,,0.04,248.0,meteohub,2013-04-23 21:32:00,
2013-04-23 17:37:00,82.9,70.3,29.94,SE,133,4.0,13.0,66,0.00,,,0.04,116.0,meteohub,2013-04-23 21:37:00,
2013-04-23 17:42:00,82.8,69.8,29.94,SE,140,7.0,13.0,65,0.00,,,0.04,83.0,meteohub,2013-04-23 21:42:00,
2013-04-23 17:48:00,82.4,70.0,29.94,East,80,3.0,14.0,66,0.00,,,0.04,70.0,meteohub,2013-04-23 21:48:00,
2013-04-23 17:52:00,82.2,70.2,29.94,SSE,165,13.0,14.0,67,0.00,,,0.04,48.0,meteohub,2013-04-23 21:52:00,
2013-04-23 17:58:00,81.9,69.4,29.94,SE,145,5.0,16.0,66,0.00,,,0.04,44.0,meteohub,2013-04-23 21:58:00,
2013-04-23 18:03:00,81.7,68.7,29.94,ESE,120,0.0,16.0,65,0.00,,,0.04,32.0,meteohub,2013-04-23 22:03:00,
2013-04-23 18:08:00,81.7,67.8,29.94,East,97,0.0,16.0,63,0.00,,,0.04,26.0,meteohub,2013-04-23 22:08:00,
2013-04-23 18:13:00,81.3,67.1,29.95,ENE,62,0.0,12.0,62,0.00,,,0.04,18.0,meteohub,2013-04-23 22:13:00,
2013-04-23 18:18:00,81.3,66.6,29.95,East,85,0.0,14.0,61,0.00,,,0.04,9.0,meteohub,2013-04-23 22:18:00,
2013-04-23 18:23:00,81.1,66.4,29.95,East,93,0.0,14.0,61,0.00,,,0.04,5.0,meteohub,2013-04-23 22:23:00,
2013-04-23 18:28:00,81.1,66.4,29.96,East,86,3.0,12.0,61,0.00,,,0.04,0.0,meteohub,2013-04-23 22:28:00,
2013-04-23 18:33:00,81.0,66.7,29.96,ESE,104,0.0,10.0,62,0.00,,,0.04,0.0,meteohub,2013-04-23 22:33:00,
2013-04-23 18:38:00,81.0,67.1,29.96,SE,130,6.0,10.0,63,0.00,,,0.04,0.0,meteohub,2013-04-23 22:38:00,
2013-04-23 18:43:00,80.8,67.5,29.97,East,100,0.0,11.0,64,0.00,,,0.04,0.0,meteohub,2013-04-23 22:43:00,
2013-04-23 18:48:00,80.8,67.5,29.97,East,99,0.0,11.0,64,0.00,,,0.04,0.0,meteohub,2013-04-23 22:48:00,
2013-04-23 18:53:00,80.4,68.0,29.97,ESE,102,0.0,11.0,66,0.00,,,0.04,0.0,meteohub,2013-04-23 22:53:00,
2013-04-23 18:58:00,80.2,68.4,29.97,SE,124,0.0,11.0,67,0.00,,,0.04,0.0,meteohub,2013-04-23 22:58:00,
2013-04-23 19:03:00,80.2,69.1,29.97,ESE,123,0.0,11.0,69,0.00,,,0.04,0.0,meteohub,2013-04-23 23:03:00,
2013-04-23 19:08:00,79.9,68.7,29.97,SE,138,0.0,11.0,69,0.00,,,0.04,0.0,meteohub,2013-04-23 23:08:00,
2013-04-23 19:13:00,79.9,68.7,29.98,ESE,123,2.0,11.0,69,0.00,,,0.04,0.0,meteohub,2013-04-23 23:13:00,
2013-04-23 19:18:00,79.9,68.7,29.98,SE,133,0.0,11.0,69,0.00,,,0.04,0.0,meteohub,2013-04-23 23:18:00,
2013-04-23 19:23:00,79.9,68.7,29.98,SE,133,0.0,11.0,69,0.00,,,0.04,0.0,meteohub,2013-04-23 23:23:00,
2013-04-23 19:28:00,79.9,68.7,29.98,SE,133,0.0,7.0,69,0.00,,,0.04,0.0,meteohub,2013-04-23 23:28:00,
2013-04-23 19:33:00,79.9,68.4,29.98,SE,133,0.0,3.0,68,0.00,,,0.04,0.0,meteohub,2013-04-23 23:33:00,
2013-04-23 19:38:00,79.5,68.5,29.98,SE,133,0.0,0.0,69,0.00,,,0.04,0.0,meteohub,2013-04-23 23:38:00,
2013-04-23 19:43:00,79.5,68.5,29.99,SE,133,0.0,0.0,69,0.00,,,0.04,0.0,meteohub,2013-04-23 23:43:00,
2013-04-23 19:48:00,79.3,68.4,29.99,SE,133,0.0,0.0,69,0.00,,,0.04,0.0,meteohub,2013-04-23 23:48:00,
2013-04-23 19:53:00,79.2,68.2,29.99,SE,133,0.0,0.0,69,0.00,,,0.04,0.0,meteohub,2013-04-23 23:53:00,
2013-04-23 19:58:00,79.2,68.5,30.00,SE,133,0.0,0.0,70,0.00,,,0.04,0.0,meteohub,2013-04-23 23:58:00,
2013-04-23 20:03:00,79.0,68.7,30.00,SE,133,0.0,0.0,71,0.00,,,0.04,0.0,meteohub,2013-04-24 00:03:00,
2013-04-23 20:08:00,79.0,69.3,30.00,SE,133,0.0,0.0,72,0.00,,,0.04,0.0,meteohub,2013-04-24 00:08:00,
2013-04-23 20:14:00,78.8,69.4,30.01,SE,133,0.0,0.0,73,0.00,,,0.04,0.0,meteohub,2013-04-24 00:14:00,
2013-04-23 20:18:00,78.8,69.4,30.01,SE,133,0.0,0.0,73,0.00,,,0.04,0.0,meteohub,2013-04-24 00:18:00,
2013-04-23 20:23:00,78.8,69.4,30.01,SE,138,0.0,0.0,73,0.00,,,0.04,0.0,meteohub,2013-04-24 00:23:00,
2013-04-23 20:29:00,78.6,69.3,30.01,SE,138,0.0,0.0,73,0.00,,,0.04,0.0,meteohub,2013-04-24 00:29:00,
2013-04-23 20:34:00,78.6,69.3,30.01,SE,137,0.0,1.0,73,0.00,,,0.04,0.0,meteohub,2013-04-24 00:34:00,
2013-04-23 20:39:00,78.6,69.3,30.01,SE,138,0.0,1.0,73,0.00,,,0.04,0.0,meteohub,2013-04-24 00:39:00,
2013-04-23 20:44:00,78.4,69.4,30.02,SE,138,0.0,0.0,74,0.00,,,0.04,0.0,meteohub,2013-04-24 00:44:00,
2013-04-23 20:49:00,78.4,69.4,30.02,SE,138,0.0,0.0,74,0.00,,,0.04,0.0,meteohub,2013-04-24 00:49:00,
2013-04-23 20:54:00,78.4,69.4,30.02,SE,140,0.0,0.0,74,0.00,,,0.04,0.0,meteohub,2013-04-24 00:54:00,
2013-04-23 20:59:00,78.4,69.4,30.02,SE,138,0.0,0.0,74,0.00,,,0.04,0.0,meteohub,2013-04-24 00:59:00,
2013-04-23 21:04:00,78.4,69.4,30.02,SE,138,0.0,0.0,74,0.00,,,0.04,0.0,meteohub,2013-04-24 01:04:00,
2013-04-23 21:09:00,78.3,69.6,30.02,SE,141,0.0,0.0,75,0.00,,,0.04,0.0,meteohub,2013-04-24 01:09:00,
2013-04-23 21:14:00,78.1,69.4,30.02,SE,138,0.0,0.0,75,0.00,,,0.04,0.0,meteohub,2013-04-24 01:14:00,
2013-04-23 21:19:00,78.1,70.0,30.02,SE,137,0.0,0.0,76,0.00,,,0.04,0.0,meteohub,2013-04-24 01:19:00,
2013-04-23 21:24:00,78.1,70.0,30.02,SE,138,0.0,0.0,76,0.00,,,0.04,0.0,meteohub,2013-04-24 01:24:00,
2013-04-23 21:29:00,77.9,69.8,30.02,SE,138,0.0,0.0,76,0.00,,,0.04,0.0,meteohub,2013-04-24 01:29:00,
2013-04-23 21:34:00,77.7,70.0,30.02,SE,138,0.0,0.0,77,0.00,,,0.04,0.0,meteohub,2013-04-24 01:34:00,
2013-04-23 21:39:00,77.7,70.0,30.02,SE,138,0.0,0.0,77,0.00,,,0.04,0.0,meteohub,2013-04-24 01:39:00,
2013-04-23 21:44:00,77.7,70.0,30.03,SE,140,0.0,0.0,77,0.00,,,0.04,0.0,meteohub,2013-04-24 01:44:00,
2013-04-23 21:49:00,77.7,70.3,30.03,SE,138,0.0,0.0,78,0.00,,,0.04,0.0,meteohub,2013-04-24 01:49:00,
2013-04-23 21:54:00,77.4,70.0,30.03,SE,137,0.0,0.0,78,0.00,,,0.04,0.0,meteohub,2013-04-24 01:54:00,
2013-04-23 22:00:00,77.4,70.0,30.04,SE,138,0.0,0.0,78,0.00,,,0.04,0.0,meteohub,2013-04-24 02:00:00,
2013-04-23 22:05:00,77.4,70.0,30.04,SE,138,0.0,0.0,78,0.00,,,0.04,0.0,meteohub,2013-04-24 02:05:00,
2013-04-23 22:10:00,77.4,70.0,30.04,SE,138,0.0,0.0,78,0.00,,,0.04,0.0,meteohub,2013-04-24 02:10:00,
2013-04-23 22:15:00,77.4,70.0,30.04,SE,138,0.0,0.0,78,0.00,,,0.04,0.0,meteohub,2013-04-24 02:15:00,
2013-04-23 22:20:00,77.4,70.0,30.04,SE,137,0.0,0.0,78,0.00,,,0.04,0.0,meteohub,2013-04-24 02:20:00,
2013-04-23 22:25:00,77.4,70.3,30.04,SE,138,0.0,0.0,79,0.00,,,0.04,0.0,meteohub,2013-04-24 02:25:00,
2013-04-23 22:30:00,77.4,70.3,30.04,SE,138,0.0,0.0,79,0.00,,,0.04,0.0,meteohub,2013-04-24 02:30:00,
2013-04-23 22:35:00,77.4,70.3,30.04,SE,140,0.0,0.0,79,0.00,,,0.04,0.0,meteohub,2013-04-24 02:35:00,
2013-04-23 22:40:00,77.2,70.2,30.04,SE,137,0.0,0.0,79,0.00,,,0.04,0.0,meteohub,2013-04-24 02:40:00,
2013-04-23 22:46:00,77.0,70.3,30.04,SE,138,0.0,0.0,80,0.00,,,0.04,0.0,meteohub,2013-04-24 02:46:00,
2013-04-23 22:51:00,77.2,70.5,30.04,SE,138,0.0,0.0,80,0.00,,,0.04,0.0,meteohub,2013-04-24 02:51:00,
2013-04-23 22:56:00,77.0,70.3,30.04,SE,138,0.0,0.0,80,0.00,,,0.04,0.0,meteohub,2013-04-24 02:56:00,
2013-04-23 23:02:00,77.0,70.7,30.04,SE,137,0.0,0.0,81,0.00,,,0.04,0.0,meteohub,2013-04-24 03:02:00,
2013-04-23 23:07:00,77.0,70.7,30.04,SE,137,0.0,0.0,81,0.00,,,0.04,0.0,meteohub,2013-04-24 03:07:00,
2013-04-23 23:12:00,76.6,70.3,30.04,SE,140,0.0,0.0,81,0.00,,,0.04,0.0,meteohub,2013-04-24 03:12:00,
2013-04-23 23:17:00,76.6,70.7,30.04,SE,138,0.0,0.0,82,0.00,,,0.04,0.0,meteohub,2013-04-24 03:17:00,
2013-04-23 23:22:00,76.5,70.9,30.04,SE,138,0.0,0.0,83,0.00,,,0.04,0.0,meteohub,2013-04-24 03:22:00,
2013-04-23 23:27:00,76.3,70.7,30.04,SE,138,0.0,0.0,83,0.00,,,0.04,0.0,meteohub,2013-04-24 03:27:00,
2013-04-23 23:33:00,76.3,71.1,30.03,SE,140,0.0,0.0,84,0.00,,,0.04,0.0,meteohub,2013-04-24 03:33:00,
2013-04-23 23:38:00,75.9,70.7,30.03,SE,140,0.0,0.0,84,0.00,,,0.04,0.0,meteohub,2013-04-24 03:38:00,
2013-04-23 23:43:00,75.9,70.7,30.04,SE,140,0.0,0.0,84,0.00,,,0.04,0.0,meteohub,2013-04-24 03:43:00,
2013-04-23 23:48:00,75.9,71.1,30.04,SE,138,0.0,0.0,85,0.00,,,0.04,0.0,meteohub,2013-04-24 03:48:00,
2013-04-23 23:53:00,75.7,70.9,30.04,SE,140,0.0,0.0,85,0.00,,,0.04,0.0,meteohub,2013-04-24 03:53:00,
2013-04-23 23:58:00,75.7,71.2,30.04,SE,140,0.0,0.0,86,0.00,,,0.04,0.0,meteohub,2013-04-24 03:58:00,